Terminal Aerodrome Forecast
Issued by NWS Pocatello, ID

Home | Current Version | Previous Version | Text Only | Print | Product List | Glossary On
Versions: 1 2 3 4 5 6 7 8 9 10 11 12 13 14 15 16 17 18 19 20 21 22 23 24
555
FTUS45 KPIH 240301 AAA
TAFIDA
TAF AMD
KIDA 240301Z 2403/2424 19013G23KT 3SM -SN BR BKN009 OVC020
     FM242000 22013G23KT 6SM -SHSN BLSN BR BKN010 OVC020=

USA.gov is the U.S. government's official web portal to all federal, state and local government web resources and services.